sensor_id;sensor_type;location;lat;lon;timestamp;pressure;altitude;pressure_sealevel;temperature;humidity
15442;BME280;7821;48.818;9.798;2022-10-16T00:01:10;74751.47;;;-140.16;100.00
15442;BME280;7821;48.818;9.798;2022-10-16T00:03:38;74757.38;;;-140.16;100.00
15442;BME280;7821;48.818;9.798;2022-10-16T00:06:05;74759.38;;;-140.16;100.00
15442;BME280;7821;48.818;9.798;2022-10-16T00:08:31;74753.44;;;-140.16;100.00
15442;BME280;7821;48.818;9.798;2022-10-16T00:11:02;74759.38;;;-140.16;100.00
15442;BME280;7821;48.818;9.798;2022-10-16T00:13:29;74763.31;;;-140.16;100.00
15442;BME280;7821;48.818;9.798;2022-10-16T00:15:56;74757.38;;;-140.16;100.00
15442;BME280;7821;48.818;9.798;2022-10-16T00:18:23;74763.31;;;-140.16;100.00
15442;BME280;7821;48.818;9.798;2022-10-16T00:20:50;74767.25;;;-140.16;100.00
15442;BME280;7821;48.818;9.798;2022-10-16T00:23:17;74769.22;;;-140.16;100.00
15442;BME280;7821;48.818;9.798;2022-10-16T00:25:43;74773.16;;;-140.16;100.00
15442;BME280;7821;48.818;9.798;2022-10-16T00:28:10;74783.03;;;-140.16;100.00
15442;BME280;7821;48.818;9.798;2022-10-16T00:30:39;74783.03;;;-140.16;100.00
15442;BME280;7821;48.818;9.798;2022-10-16T00:33:06;74779.06;;;-140.16;100.00
15442;BME280;7821;48.818;9.798;2022-10-16T00:35:32;74779.06;;;-140.16;100.00
15442;BME280;7821;48.818;9.798;2022-10-16T00:37:58;74785.00;;;-140.16;100.00
15442;BME280;7821;48.818;9.798;2022-10-16T00:40:25;74781.06;;;-140.16;100.00
15442;BME280;7821;48.818;9.798;2022-10-16T00:42:51;74785.00;;;-140.16;100.00
15442;BME280;7821;48.818;9.798;2022-10-16T00:45:18;74790.91;;;-140.16;100.00
15442;BME280;7821;48.818;9.798;2022-10-16T00:47:44;74783.03;;;-140.16;100.00
15442;BME280;7821;48.818;9.798;2022-10-16T00:50:15;74786.97;;;-140.16;100.00
15442;BME280;7821;48.818;9.798;2022-10-16T00:52:43;74792.88;;;-140.16;100.00
15442;BME280;7821;48.818;9.798;2022-10-16T00:55:10;74792.88;;;-140.16;100.00
15442;BME280;7821;48.818;9.798;2022-10-16T00:57:37;74796.81;;;-140.16;100.00
15442;BME280;7821;48.818;9.798;2022-10-16T01:00:04;74790.91;;;-140.16;100.00
15442;BME280;7821;48.818;9.798;2022-10-16T01:02:31;74792.88;;;-140.16;100.00
15442;BME280;7821;48.818;9.798;2022-10-16T01:04:58;74802.75;;;-140.16;100.00
15442;BME280;7821;48.818;9.798;2022-10-16T01:10:09;74810.63;;;-140.16;100.00
15442;BME280;7821;48.818;9.798;2022-10-16T01:18:07;74836.25;;;-140.16;100.00
15442;BME280;7821;48.818;9.798;2022-10-16T01:20:50;74830.34;;;-140.16;100.00
15442;BME280;7821;48.818;9.798;2022-10-16T01:23:24;74832.31;;;-140.16;100.00
15442;BME280;7821;48.818;9.798;2022-10-16T01:28:21;74842.16;;;-140.16;100.00
15442;BME280;7821;48.818;9.798;2022-10-16T01:30:49;74850.06;;;-140.16;100.00
15442;BME280;7821;48.818;9.798;2022-10-16T01:33:27;74859.91;;;-140.16;100.00
15442;BME280;7821;48.818;9.798;2022-10-16T01:35:56;74859.91;;;-140.16;100.00
15442;BME280;7821;48.818;9.798;2022-10-16T01:38:26;74865.81;;;-140.16;100.00
15442;BME280;7821;48.818;9.798;2022-10-16T01:40:58;74873.72;;;-140.16;100.00
15442;BME280;7821;48.818;9.798;2022-10-16T01:46:11;74881.59;;;-140.16;100.00
15442;BME280;7821;48.818;9.798;2022-10-16T01:48:39;74889.47;;;-140.16;100.00
15442;BME280;7821;48.818;9.798;2022-10-16T01:51:08;74883.56;;;-140.16;100.00
15442;BME280;7821;48.818;9.798;2022-10-16T01:53:36;74897.38;;;-140.16;100.00
15442;BME280;7821;48.818;9.798;2022-10-16T01:56:03;74887.50;;;-140.16;100.00
15442;BME280;7821;48.818;9.798;2022-10-16T01:58:32;74885.53;;;-140.16;100.00
15442;BME280;7821;48.818;9.798;2022-10-16T02:01:01;74885.53;;;-140.16;100.00
15442;BME280;7821;48.818;9.798;2022-10-16T02:03:29;74899.34;;;-140.16;100.00
15442;BME280;7821;48.818;9.798;2022-10-16T02:05:56;74897.38;;;-140.16;100.00
15442;BME280;7821;48.818;9.798;2022-10-16T02:08:24;74891.44;;;-140.16;100.00
15442;BME280;7821;48.818;9.798;2022-10-16T02:10:51;74881.59;;;-140.16;100.00
15442;BME280;7821;48.818;9.798;2022-10-16T02:13:29;74875.69;;;-140.16;100.00
15442;BME280;7821;48.818;9.798;2022-10-16T02:15:56;74871.72;;;-140.16;100.00
15442;BME280;7821;48.818;9.798;2022-10-16T02:18:23;74881.59;;;-140.16;100.00
15442;BME280;7821;48.818;9.798;2022-10-16T02:20:59;74881.59;;;-140.16;100.00
15442;BME280;7821;48.818;9.798;2022-10-16T02:23:50;74887.50;;;-140.16;100.00
15442;BME280;7821;48.818;9.798;2022-10-16T02:26:15;74885.53;;;-140.16;100.00
15442;BME280;7821;48.818;9.798;2022-10-16T02:28:45;74887.50;;;-140.16;100.00
15442;BME280;7821;48.818;9.798;2022-10-16T02:31:15;74883.56;;;-140.16;100.00
15442;BME280;7821;48.818;9.798;2022-10-16T02:33:43;74881.59;;;-140.16;100.00
15442;BME280;7821;48.818;9.798;2022-10-16T02:36:11;74877.66;;;-140.16;100.00
15442;BME280;7821;48.818;9.798;2022-10-16T02:38:38;74877.66;;;-140.16;100.00
15442;BME280;7821;48.818;9.798;2022-10-16T02:41:05;74873.72;;;-140.16;100.00
15442;BME280;7821;48.818;9.798;2022-10-16T02:43:32;74885.53;;;-140.16;100.00
15442;BME280;7821;48.818;9.798;2022-10-16T02:45:59;74885.53;;;-140.16;100.00
15442;BME280;7821;48.818;9.798;2022-10-16T02:48:26;74877.66;;;-140.16;100.00
15442;BME280;7821;48.818;9.798;2022-10-16T02:50:52;74873.72;;;-140.16;100.00
15442;BME280;7821;48.818;9.798;2022-10-16T02:53:19;74869.75;;;-140.16;100.00
15442;BME280;7821;48.818;9.798;2022-10-16T02:55:45;74875.69;;;-140.16;100.00
15442;BME280;7821;48.818;9.798;2022-10-16T02:58:11;74873.72;;;-140.16;100.00
15442;BME280;7821;48.818;9.798;2022-10-16T03:00:38;74877.66;;;-140.16;100.00
15442;BME280;7821;48.818;9.798;2022-10-16T03:03:04;74875.69;;;-140.16;100.00
15442;BME280;7821;48.818;9.798;2022-10-16T03:05:31;74848.06;;;-140.16;100.00
15442;BME280;7821;48.818;9.798;2022-10-16T03:07:57;74846.09;;;-140.16;100.00
15442;BME280;7821;48.818;9.798;2022-10-16T03:10:26;74824.41;;;-140.16;100.00
15442;BME280;7821;48.818;9.798;2022-10-16T03:12:55;74828.38;;;-140.16;100.00
15442;BME280;7821;48.818;9.798;2022-10-16T03:15:21;74824.41;;;-140.16;100.00
15442;BME280;7821;48.818;9.798;2022-10-16T03:17:47;74804.72;;;-140.16;100.00
15442;BME280;7821;48.818;9.798;2022-10-16T03:20:14;74814.56;;;-140.16;100.00
15442;BME280;7821;48.818;9.798;2022-10-16T03:22:40;74818.50;;;-140.16;100.00
15442;BME280;7821;48.818;9.798;2022-10-16T03:25:07;74822.44;;;-140.16;100.00
15442;BME280;7821;48.818;9.798;2022-10-16T03:27:33;74820.47;;;-140.16;100.00
15442;BME280;7821;48.818;9.798;2022-10-16T03:29:59;74818.50;;;-140.16;100.00
15442;BME280;7821;48.818;9.798;2022-10-16T03:32:26;74826.41;;;-140.16;100.00
15442;BME280;7821;48.818;9.798;2022-10-16T03:34:54;74830.34;;;-140.16;100.00
15442;BME280;7821;48.818;9.798;2022-10-16T03:37:22;74834.28;;;-140.16;100.00
15442;BME280;7821;48.818;9.798;2022-10-16T03:39:49;74824.41;;;-140.16;100.00
15442;BME280;7821;48.818;9.798;2022-10-16T03:42:15;74832.31;;;-140.16;100.00
15442;BME280;7821;48.818;9.798;2022-10-16T03:44:41;74840.19;;;-140.16;100.00
15442;BME280;7821;48.818;9.798;2022-10-16T03:47:08;74832.31;;;-140.16;100.00
15442;BME280;7821;48.818;9.798;2022-10-16T03:49:34;74836.25;;;-140.16;100.00
15442;BME280;7821;48.818;9.798;2022-10-16T03:52:00;74838.22;;;-140.16;100.00
15442;BME280;7821;48.818;9.798;2022-10-16T03:54:27;74830.34;;;-140.16;100.00
15442;BME280;7821;48.818;9.798;2022-10-16T03:56:53;74828.38;;;-140.16;100.00
15442;BME280;7821;48.818;9.798;2022-10-16T03:59:20;74834.28;;;-140.16;100.00
15442;BME280;7821;48.818;9.798;2022-10-16T04:01:46;74842.16;;;-140.16;100.00
15442;BME280;7821;48.818;9.798;2022-10-16T04:04:12;74838.22;;;-140.16;100.00
15442;BME280;7821;48.818;9.798;2022-10-16T04:06:39;74844.13;;;-140.16;100.00
15442;BME280;7821;48.818;9.798;2022-10-16T04:09:05;74836.25;;;-140.16;100.00
15442;BME280;7821;48.818;9.798;2022-10-16T04:11:31;74846.09;;;-140.16;100.00
15442;BME280;7821;48.818;9.798;2022-10-16T04:13:58;74859.91;;;-140.16;100.00
15442;BME280;7821;48.818;9.798;2022-10-16T04:16:24;74869.75;;;-140.16;100.00
15442;BME280;7821;48.818;9.798;2022-10-16T04:18:51;74869.75;;;-140.16;100.00
15442;BME280;7821;48.818;9.798;2022-10-16T04:21:17;74861.88;;;-140.16;100.00
15442;BME280;7821;48.818;9.798;2022-10-16T04:23:43;74865.81;;;-140.16;100.00
15442;BME280;7821;48.818;9.798;2022-10-16T04:26:10;74879.63;;;-140.16;100.00
15442;BME280;7821;48.818;9.798;2022-10-16T04:28:36;74887.50;;;-140.16;100.00
15442;BME280;7821;48.818;9.798;2022-10-16T04:31:04;74889.47;;;-140.16;100.00
15442;BME280;7821;48.818;9.798;2022-10-16T04:33:30;74891.44;;;-140.16;100.00
15442;BME280;7821;48.818;9.798;2022-10-16T04:36:00;74899.34;;;-140.16;100.00
15442;BME280;7821;48.818;9.798;2022-10-16T04:38:27;74909.19;;;-140.16;100.00
15442;BME280;7821;48.818;9.798;2022-10-16T04:40:53;74901.31;;;-140.16;100.00
15442;BME280;7821;48.818;9.798;2022-10-16T04:43:20;74901.31;;;-140.16;100.00
15442;BME280;7821;48.818;9.798;2022-10-16T04:45:46;74903.28;;;-140.16;100.00
15442;BME280;7821;48.818;9.798;2022-10-16T04:48:13;74903.28;;;-140.16;100.00
15442;BME280;7821;48.818;9.798;2022-10-16T04:50:39;74893.41;;;-140.16;100.00
15442;BME280;7821;48.818;9.798;2022-10-16T04:53:06;74893.41;;;-140.16;100.00
15442;BME280;7821;48.818;9.798;2022-10-16T04:55:33;74895.38;;;-140.16;100.00
15442;BME280;7821;48.818;9.798;2022-10-16T04:57:59;74901.31;;;-140.16;100.00
15442;BME280;7821;48.818;9.798;2022-10-16T05:00:26;74907.22;;;-140.16;100.00
15442;BME280;7821;48.818;9.798;2022-10-16T05:02:52;74905.25;;;-140.16;100.00
15442;BME280;7821;48.818;9.798;2022-10-16T05:05:19;74907.22;;;-140.16;100.00
15442;BME280;7821;48.818;9.798;2022-10-16T05:07:46;74901.31;;;-140.16;100.00
15442;BME280;7821;48.818;9.798;2022-10-16T05:10:12;74905.25;;;-140.16;100.00
15442;BME280;7821;48.818;9.798;2022-10-16T05:12:39;74911.16;;;-140.16;100.00
15442;BME280;7821;48.818;9.798;2022-10-16T05:15:05;74915.09;;;-140.16;100.00
15442;BME280;7821;48.818;9.798;2022-10-16T05:17:32;74911.16;;;-140.16;100.00
15442;BME280;7821;48.818;9.798;2022-10-16T05:19:58;74917.06;;;-140.16;100.00
15442;BME280;7821;48.818;9.798;2022-10-16T05:22:24;74903.28;;;-140.16;100.00
15442;BME280;7821;48.818;9.798;2022-10-16T05:24:51;74897.38;;;-140.16;100.00
15442;BME280;7821;48.818;9.798;2022-10-16T05:27:17;74901.31;;;-140.16;100.00
15442;BME280;7821;48.818;9.798;2022-10-16T05:29:47;74909.19;;;-140.16;100.00
15442;BME280;7821;48.818;9.798;2022-10-16T05:32:17;74915.09;;;-140.16;100.00
15442;BME280;7821;48.818;9.798;2022-10-16T05:34:44;74913.13;;;-140.16;100.00
15442;BME280;7821;48.818;9.798;2022-10-16T05:37:11;74923.00;;;-140.16;100.00
15442;BME280;7821;48.818;9.798;2022-10-16T05:39:37;74928.91;;;-140.16;100.00
15442;BME280;7821;48.818;9.798;2022-10-16T05:42:04;74905.25;;;-140.16;100.00
15442;BME280;7821;48.818;9.798;2022-10-16T05:44:31;74909.19;;;-140.16;100.00
15442;BME280;7821;48.818;9.798;2022-10-16T05:46:57;74915.09;;;-140.16;100.00
15442;BME280;7821;48.818;9.798;2022-10-16T05:49:24;74913.13;;;-140.16;100.00
15442;BME280;7821;48.818;9.798;2022-10-16T05:51:50;74915.09;;;-140.16;100.00
15442;BME280;7821;48.818;9.798;2022-10-16T05:54:16;74921.03;;;-140.16;100.00
15442;BME280;7821;48.818;9.798;2022-10-16T05:56:43;74917.06;;;-140.16;100.00
15442;BME280;7821;48.818;9.798;2022-10-16T05:59:09;74907.22;;;-140.16;100.00
15442;BME280;7821;48.818;9.798;2022-10-16T06:01:35;74921.03;;;-140.16;100.00
15442;BME280;7821;48.818;9.798;2022-10-16T06:04:02;74923.00;;;-140.16;100.00
15442;BME280;7821;48.818;9.798;2022-10-16T06:06:28;74917.06;;;-140.16;100.00
15442;BME280;7821;48.818;9.798;2022-10-16T06:08:56;74915.09;;;-140.16;100.00
15442;BME280;7821;48.818;9.798;2022-10-16T06:11:24;74921.03;;;-140.16;100.00
15442;BME280;7821;48.818;9.798;2022-10-16T06:13:52;74915.09;;;-140.16;100.00
15442;BME280;7821;48.818;9.798;2022-10-16T06:16:19;74917.06;;;-140.16;100.00
15442;BME280;7821;48.818;9.798;2022-10-16T06:18:46;74901.31;;;-140.16;100.00
15442;BME280;7821;48.818;9.798;2022-10-16T06:21:19;74907.22;;;-140.16;100.00
15442;BME280;7821;48.818;9.798;2022-10-16T06:23:48;74907.22;;;-140.16;100.00
15442;BME280;7821;48.818;9.798;2022-10-16T06:26:15;74893.41;;;-140.16;100.00
15442;BME280;7821;48.818;9.798;2022-10-16T06:28:43;74897.38;;;-140.16;100.00
15442;BME280;7821;48.818;9.798;2022-10-16T06:31:09;74905.25;;;-140.16;100.00
15442;BME280;7821;48.818;9.798;2022-10-16T06:33:37;74913.13;;;-140.16;100.00
15442;BME280;7821;48.818;9.798;2022-10-16T06:36:04;74913.13;;;-140.16;100.00
15442;BME280;7821;48.818;9.798;2022-10-16T06:38:31;74915.09;;;-140.16;100.00
15442;BME280;7821;48.818;9.798;2022-10-16T06:40:58;74901.31;;;-140.16;100.00
15442;BME280;7821;48.818;9.798;2022-10-16T06:43:24;74893.41;;;-140.16;100.00
15442;BME280;7821;48.818;9.798;2022-10-16T06:45:52;74873.72;;;-140.16;100.00
15442;BME280;7821;48.818;9.798;2022-10-16T06:48:19;74865.81;;;-140.16;100.00
15442;BME280;7821;48.818;9.798;2022-10-16T06:50:54;74861.88;;;-140.16;100.00
15442;BME280;7821;48.818;9.798;2022-10-16T06:53:21;74857.94;;;-140.16;100.00
15442;BME280;7821;48.818;9.798;2022-10-16T06:55:47;74855.97;;;-140.16;100.00
15442;BME280;7821;48.818;9.798;2022-10-16T06:58:13;74840.19;;;-140.16;100.00
15442;BME280;7821;48.818;9.798;2022-10-16T07:00:40;74836.25;;;-140.16;100.00
15442;BME280;7821;48.818;9.798;2022-10-16T07:03:06;74830.34;;;-140.16;100.00
15442;BME280;7821;48.818;9.798;2022-10-16T07:05:37;74816.53;;;-140.16;100.00
15442;BME280;7821;48.818;9.798;2022-10-16T07:08:03;74790.91;;;-140.16;100.00
15442;BME280;7821;48.818;9.798;2022-10-16T07:10:31;74769.22;;;-140.16;100.00
15442;BME280;7821;48.818;9.798;2022-10-16T07:12:58;74749.50;;;-140.16;100.00
15442;BME280;7821;48.818;9.798;2022-10-16T07:15:24;74741.63;;;-140.16;100.00
15442;BME280;7821;48.818;9.798;2022-10-16T07:17:51;74743.59;;;-140.16;100.00
15442;BME280;7821;48.818;9.798;2022-10-16T07:20:18;74729.78;;;-140.16;100.00
15442;BME280;7821;48.818;9.798;2022-10-16T07:22:45;74712.06;;;-140.16;100.00
15442;BME280;7821;48.818;9.798;2022-10-16T07:25:11;74694.31;;;-140.16;100.00
15442;BME280;7821;48.818;9.798;2022-10-16T07:27:38;74684.44;;;-140.16;100.00
15442;BME280;7821;48.818;9.798;2022-10-16T07:30:04;74666.72;;;-140.16;100.00
15442;BME280;7821;48.818;9.798;2022-10-16T07:32:32;74645.03;;;-140.16;100.00
15442;BME280;7821;48.818;9.798;2022-10-16T07:34:58;74635.16;;;-140.16;100.00
15442;BME280;7821;48.818;9.798;2022-10-16T07:37:24;74625.31;;;-140.16;100.00
15442;BME280;7821;48.818;9.798;2022-10-16T07:39:51;74619.41;;;-140.16;100.00
15442;BME280;7821;48.818;9.798;2022-10-16T07:42:17;74613.47;;;-140.16;100.00
15442;BME280;7821;48.818;9.798;2022-10-16T07:44:44;74609.53;;;-140.16;100.00
15442;BME280;7821;48.818;9.798;2022-10-16T07:47:10;74613.47;;;-140.16;100.00
15442;BME280;7821;48.818;9.798;2022-10-16T07:49:37;74611.50;;;-140.16;100.00
15442;BME280;7821;48.818;9.798;2022-10-16T07:52:04;74611.50;;;-140.16;100.00
15442;BME280;7821;48.818;9.798;2022-10-16T07:54:30;74599.69;;;-140.16;100.00
15442;BME280;7821;48.818;9.798;2022-10-16T07:56:57;74599.69;;;-140.16;100.00
15442;BME280;7821;48.818;9.798;2022-10-16T07:59:23;74597.72;;;-140.16;100.00
15442;BME280;7821;48.818;9.798;2022-10-16T08:01:49;74599.69;;;-140.16;100.00
15442;BME280;7821;48.818;9.798;2022-10-16T08:04:16;74597.72;;;-140.16;100.00
15442;BME280;7821;48.818;9.798;2022-10-16T08:06:42;74603.63;;;-140.16;100.00
15442;BME280;7821;48.818;9.798;2022-10-16T08:09:09;74597.72;;;-140.16;100.00
15442;BME280;7821;48.818;9.798;2022-10-16T08:11:35;74605.59;;;-140.16;100.00
15442;BME280;7821;48.818;9.798;2022-10-16T08:14:02;74603.63;;;-140.16;100.00
15442;BME280;7821;48.818;9.798;2022-10-16T08:16:28;74607.56;;;-140.16;100.00
15442;BME280;7821;48.818;9.798;2022-10-16T08:18:54;74605.59;;;-140.16;100.00
15442;BME280;7821;48.818;9.798;2022-10-16T08:21:21;74597.72;;;-140.16;100.00
15442;BME280;7821;48.818;9.798;2022-10-16T08:23:49;74585.88;;;-140.16;100.00
15442;BME280;7821;48.818;9.798;2022-10-16T08:26:18;74581.94;;;-140.16;100.00
15442;BME280;7821;48.818;9.798;2022-10-16T08:28:45;74574.06;;;-140.16;100.00
15442;BME280;7821;48.818;9.798;2022-10-16T08:31:12;74576.03;;;-140.16;100.00
15442;BME280;7821;48.818;9.798;2022-10-16T08:33:40;74578.00;;;-140.16;99.84
15442;BME280;7821;48.818;9.798;2022-10-16T08:36:08;74578.00;;;-140.16;100.00
15442;BME280;7821;48.818;9.798;2022-10-16T08:38:35;74574.06;;;-140.16;100.00
15442;BME280;7821;48.818;9.798;2022-10-16T08:41:17;74562.22;;;-140.16;100.00
15442;BME280;7821;48.818;9.798;2022-10-16T08:48:58;74522.81;;;-140.16;99.96
15442;BME280;7821;48.818;9.798;2022-10-16T08:51:26;74512.94;;;-140.16;99.30
15442;BME280;7821;48.818;9.798;2022-10-16T08:53:56;74497.19;;;-140.16;98.90
15442;BME280;7821;48.818;9.798;2022-10-16T08:56:22;74497.19;;;-140.16;97.78
15442;BME280;7821;48.818;9.798;2022-10-16T08:58:49;74497.19;;;-140.16;96.90
15442;BME280;7821;48.818;9.798;2022-10-16T09:01:20;74495.22;;;-140.16;95.99
15442;BME280;7821;48.818;9.798;2022-10-16T09:14:46;74438.03;;;-140.16;86.47
15442;BME280;7821;48.818;9.798;2022-10-16T09:17:32;74436.06;;;-140.16;84.08
15442;BME280;7821;48.818;9.798;2022-10-16T09:20:13;74428.19;;;-140.16;81.25
15442;BME280;7821;48.818;9.798;2022-10-16T09:22:44;74426.22;;;-140.16;80.73
15442;BME280;7821;48.818;9.798;2022-10-16T09:25:11;74438.03;;;-140.16;76.19
15442;BME280;7821;48.818;9.798;2022-10-16T09:27:38;74465.63;;;-140.16;75.68
15442;BME280;7821;48.818;9.798;2022-10-16T09:30:15;74461.69;;;-140.16;78.06
15442;BME280;7821;48.818;9.798;2022-10-16T09:32:43;74467.59;;;-140.16;79.30
15442;BME280;7821;48.818;9.798;2022-10-16T09:35:14;74487.31;;;-140.16;76.71
15442;BME280;7821;48.818;9.798;2022-10-16T09:37:42;74491.25;;;-140.16;78.64
15442;BME280;7821;48.818;9.798;2022-10-16T09:40:13;74487.31;;;-140.16;79.88
15442;BME280;7821;48.818;9.798;2022-10-16T09:42:40;74475.50;;;-140.16;80.88
15442;BME280;7821;48.818;9.798;2022-10-16T09:45:18;74463.66;;;-140.16;81.36
15442;BME280;7821;48.818;9.798;2022-10-16T09:47:46;74447.91;;;-140.16;81.30
15442;BME280;7821;48.818;9.798;2022-10-16T09:50:20;74424.25;;;-140.16;81.26
15442;BME280;7821;48.818;9.798;2022-10-16T09:52:47;74410.44;;;-140.16;80.25
15442;BME280;7821;48.818;9.798;2022-10-16T09:55:15;74410.44;;;-140.16;75.95
15442;BME280;7821;48.818;9.798;2022-10-16T09:57:52;74396.66;;;-140.16;76.97
15442;BME280;7821;48.818;9.798;2022-10-16T10:00:19;74376.94;;;-140.16;77.53
15442;BME280;7821;48.818;9.798;2022-10-16T10:02:47;74400.59;;;-140.16;71.74
15442;BME280;7821;48.818;9.798;2022-10-16T10:05:17;74414.38;;;-140.16;72.79
15442;BME280;7821;48.818;9.798;2022-10-16T10:07:44;74386.78;;;-140.16;75.69
15442;BME280;7821;48.818;9.798;2022-10-16T10:10:22;74369.03;;;-140.16;74.17
15442;BME280;7821;48.818;9.798;2022-10-16T10:12:49;74335.53;;;-140.16;74.05
15442;BME280;7821;48.818;9.798;2022-10-16T10:15:16;74341.44;;;-140.16;69.41
15442;BME280;7821;48.818;9.798;2022-10-16T10:20:25;74351.31;;;-140.16;71.69
15442;BME280;7821;48.818;9.798;2022-10-16T10:22:52;74374.97;;;-140.16;67.62
15442;BME280;7821;48.818;9.798;2022-10-16T10:25:31;74376.94;;;-140.16;69.62
15442;BME280;7821;48.818;9.798;2022-10-16T10:38:45;74211.34;;;-140.16;66.42
15442;BME280;7821;48.818;9.798;2022-10-16T10:41:35;74240.91;;;-140.16;55.86
15442;BME280;7821;48.818;9.798;2022-10-16T10:46:56;74187.69;;;-140.16;57.04
15442;BME280;7821;48.818;9.798;2022-10-16T10:57:14;74199.53;;;-140.16;59.49
15442;BME280;7821;48.818;9.798;2022-10-16T11:05:12;74179.81;;;-140.16;54.72
15442;BME280;7821;48.818;9.798;2022-10-16T11:07:52;74181.78;;;-140.16;56.59
15442;BME280;7821;48.818;9.798;2022-10-16T11:10:21;74197.56;;;-140.16;57.35
15442;BME280;7821;48.818;9.798;2022-10-16T11:12:50;74148.28;;;-140.16;59.40
15442;BME280;7821;48.818;9.798;2022-10-16T11:15:20;74144.34;;;-140.16;54.75
15442;BME280;7821;48.818;9.798;2022-10-16T11:20:20;74073.38;;;-140.16;57.34
15442;BME280;7821;48.818;9.798;2022-10-16T11:22:51;74085.19;;;-140.16;52.95
15442;BME280;7821;48.818;9.798;2022-10-16T11:25:37;74100.97;;;-140.16;51.97
15442;BME280;7821;48.818;9.798;2022-10-16T11:28:19;74081.25;;;-140.16;53.01
15442;BME280;7821;48.818;9.798;2022-10-16T11:30:51;74043.81;;;-140.16;52.90
15442;BME280;7821;48.818;9.798;2022-10-16T11:33:22;74014.25;;;-140.16;52.45
15442;BME280;7821;48.818;9.798;2022-10-16T11:36:03;74022.13;;;-140.16;48.12
15442;BME280;7821;48.818;9.798;2022-10-16T11:43:52;74079.28;;;-140.16;50.52
15442;BME280;7821;48.818;9.798;2022-10-16T11:46:23;74045.78;;;-140.16;50.90
15442;BME280;7821;48.818;9.798;2022-10-16T11:56:20;74069.44;;;-140.16;47.15
15442;BME280;7821;48.818;9.798;2022-10-16T11:59:03;74075.34;;;-140.16;49.19
15442;BME280;7821;48.818;9.798;2022-10-16T12:04:06;74024.09;;;-140.16;48.47
15442;BME280;7821;48.818;9.798;2022-10-16T12:06:52;74033.97;;;-140.16;48.93
15442;BME280;7821;48.818;9.798;2022-10-16T12:09:25;74053.66;;;-140.16;47.72
15442;BME280;7821;48.818;9.798;2022-10-16T12:11:53;74010.31;;;-140.16;49.42
15442;BME280;7821;48.818;9.798;2022-10-16T12:16:53;73961.03;;;-140.16;46.88
15442;BME280;7821;48.818;9.798;2022-10-16T12:19:20;73990.59;;;-140.16;46.27
15442;BME280;7821;48.818;9.798;2022-10-16T12:21:47;73917.66;;;-140.16;46.24
15442;BME280;7821;48.818;9.798;2022-10-16T12:24:36;73892.03;;;-140.16;44.36
15442;BME280;7821;48.818;9.798;2022-10-16T12:27:00;73884.16;;;-140.16;42.81
15442;BME280;7821;48.818;9.798;2022-10-16T12:32:00;73878.25;;;-140.16;43.81
15442;BME280;7821;48.818;9.798;2022-10-16T12:34:28;73868.41;;;-140.16;44.02
15442;BME280;7821;48.818;9.798;2022-10-16T12:36:55;73876.28;;;-140.16;42.00
15442;BME280;7821;48.818;9.798;2022-10-16T12:39:33;73929.50;;;-140.16;44.08
15442;BME280;7821;48.818;9.798;2022-10-16T12:42:02;73903.88;;;-140.16;44.51
15442;BME280;7821;48.818;9.798;2022-10-16T12:44:32;73903.88;;;-140.16;40.44
15442;BME280;7821;48.818;9.798;2022-10-16T12:46:59;73882.19;;;-140.16;41.63
15442;BME280;7821;48.818;9.798;2022-10-16T12:51:55;73811.22;;;-140.16;43.41
15442;BME280;7821;48.818;9.798;2022-10-16T12:54:23;73811.22;;;-140.16;39.08
15442;BME280;7821;48.818;9.798;2022-10-16T12:57:03;73811.22;;;-140.16;40.87
15442;BME280;7821;48.818;9.798;2022-10-16T13:07:17;73765.91;;;-140.16;38.76
15442;BME280;7821;48.818;9.798;2022-10-16T13:27:47;73925.56;;;-140.16;43.95
15442;BME280;7821;48.818;9.798;2022-10-16T13:30:20;73951.19;;;-140.16;43.98
15442;BME280;7821;48.818;9.798;2022-10-16T13:32:53;73963.00;;;-140.16;46.81
15442;BME280;7821;48.818;9.798;2022-10-16T13:35:23;73994.53;;;-140.16;45.76
15442;BME280;7821;48.818;9.798;2022-10-16T13:37:50;74031.97;;;-140.16;46.24
15442;BME280;7821;48.818;9.798;2022-10-16T13:42:46;74071.41;;;-140.16;46.82
15442;BME280;7821;48.818;9.798;2022-10-16T13:45:23;74079.28;;;-140.16;48.31
15442;BME280;7821;48.818;9.798;2022-10-16T13:48:04;74081.25;;;-140.16;46.49
15442;BME280;7821;48.818;9.798;2022-10-16T13:50:31;74093.09;;;-140.16;46.01
15442;BME280;7821;48.818;9.798;2022-10-16T13:53:05;74095.06;;;-140.16;48.95
15442;BME280;7821;48.818;9.798;2022-10-16T13:55:31;74071.41;;;-140.16;48.67
15442;BME280;7821;48.818;9.798;2022-10-16T13:58:08;74055.63;;;-140.16;44.98
15442;BME280;7821;48.818;9.798;2022-10-16T14:00:35;74018.19;;;-140.16;45.17
15442;BME280;7821;48.818;9.798;2022-10-16T14:03:02;73974.81;;;-140.16;45.17
15442;BME280;7821;48.818;9.798;2022-10-16T14:05:29;73913.72;;;-140.16;44.42
15442;BME280;7821;48.818;9.798;2022-10-16T14:07:56;73884.16;;;-140.16;42.35
15442;BME280;7821;48.818;9.798;2022-10-16T14:12:59;73876.28;;;-140.16;41.69
15442;BME280;7821;48.818;9.798;2022-10-16T14:15:27;73888.09;;;-140.16;41.78
15442;BME280;7821;48.818;9.798;2022-10-16T14:17:53;73923.59;;;-140.16;40.29
15442;BME280;7821;48.818;9.798;2022-10-16T14:20:21;73939.34;;;-140.16;40.32
15442;BME280;7821;48.818;9.798;2022-10-16T14:22:57;73937.38;;;-140.16;42.29
15442;BME280;7821;48.818;9.798;2022-10-16T14:25:25;73964.97;;;-140.16;40.32
15442;BME280;7821;48.818;9.798;2022-10-16T14:28:03;73947.22;;;-140.16;42.37
15442;BME280;7821;48.818;9.798;2022-10-16T14:30:31;73931.47;;;-140.16;41.87
15442;BME280;7821;48.818;9.798;2022-10-16T14:32:59;73927.53;;;-140.16;42.52
15442;BME280;7821;48.818;9.798;2022-10-16T14:35:36;73939.34;;;-140.16;41.26
15442;BME280;7821;48.818;9.798;2022-10-16T14:38:04;73945.25;;;-140.16;44.92
15442;BME280;7821;48.818;9.798;2022-10-16T14:40:31;73949.19;;;-140.16;46.49
15442;BME280;7821;48.818;9.798;2022-10-16T14:42:59;73968.91;;;-140.16;46.61
15442;BME280;7821;48.818;9.798;2022-10-16T14:45:27;73994.53;;;-140.16;47.85